createdAt,value
2019-03-18T00:01:51.447Z,0.40
2019-03-18T00:04:18.275Z,0.37
2019-03-18T00:06:44.900Z,0.30
2019-03-18T00:09:11.478Z,0.30
2019-03-18T00:11:38.215Z,0.40
2019-03-18T00:14:04.999Z,0.43
2019-03-18T00:16:32.738Z,0.30
2019-03-18T00:18:59.410Z,0.33
2019-03-18T00:21:25.988Z,0.30
2019-03-18T00:23:52.791Z,0.40
2019-03-18T00:26:19.640Z,0.17
2019-03-18T00:28:46.520Z,0.40
2019-03-18T00:31:13.096Z,0.40
2019-03-18T00:33:39.668Z,0.30
2019-03-18T00:36:06.439Z,0.30
2019-03-18T00:38:33.107Z,0.30
2019-03-18T00:40:59.917Z,0.40
2019-03-18T00:43:26.515Z,0.30
2019-03-18T00:45:53.237Z,0.27
2019-03-18T00:48:19.986Z,0.30
2019-03-18T00:50:46.758Z,0.40
2019-03-18T00:53:13.524Z,0.20
2019-03-18T00:55:40.107Z,0.40
2019-03-18T00:58:06.839Z,0.50
2019-03-18T01:00:33.616Z,0.20
2019-03-18T01:03:00.451Z,0.40
2019-03-18T01:05:27.216Z,0.20
2019-03-18T01:07:53.891Z,0.80
2019-03-18T01:10:20.527Z,0.30
2019-03-18T01:12:47.369Z,0.30
2019-03-18T01:15:26.790Z,0.30
2019-03-18T01:17:43.225Z,0.30
2019-03-18T01:20:10.446Z,0.40
2019-03-18T01:22:36.990Z,0.30
2019-03-18T01:25:03.892Z,0.20
2019-03-18T01:27:30.440Z,0.40
2019-03-18T01:29:57.056Z,0.30
2019-03-18T01:32:23.819Z,0.20
2019-03-18T01:34:50.648Z,0.30
2019-03-18T01:37:17.296Z,0.53
2019-03-18T01:39:44.063Z,0.53
2019-03-18T01:42:10.704Z,0.40
2019-03-18T01:44:37.266Z,0.30
2019-03-18T01:47:04.157Z,0.40
2019-03-18T01:49:30.820Z,0.30
2019-03-18T01:51:57.623Z,0.40
2019-03-18T01:54:24.502Z,0.20
2019-03-18T01:56:51.160Z,0.30
2019-03-18T01:59:17.737Z,0.30
2019-03-18T02:01:44.461Z,0.30
2019-03-18T02:04:11.129Z,0.43
2019-03-18T02:06:37.794Z,0.30
2019-03-18T02:09:05.275Z,0.40
2019-03-18T02:11:32.024Z,0.20
2019-03-18T02:13:58.669Z,0.40
2019-03-18T02:16:25.595Z,0.30
2019-03-18T02:18:52.369Z,0.30
2019-03-18T02:21:19.242Z,0.50
2019-03-18T02:23:45.999Z,0.40
2019-03-18T02:26:12.552Z,0.30
2019-03-18T02:28:39.210Z,0.50
2019-03-18T02:31:06.252Z,0.30
2019-03-18T02:33:32.871Z,0.40
2019-03-18T02:35:59.538Z,0.20
2019-03-18T02:38:26.523Z,0.30
2019-03-18T02:40:53.170Z,0.50
2019-03-18T02:43:19.830Z,0.30
2019-03-18T02:45:47.776Z,0.20
2019-03-18T02:48:14.458Z,0.30
2019-03-18T02:50:41.229Z,0.30
2019-03-18T02:53:08.035Z,0.40
2019-03-18T02:55:34.685Z,0.47
2019-03-18T02:58:01.324Z,0.27
2019-03-18T03:00:28.070Z,0.23
2019-03-18T03:02:54.598Z,0.37
2019-03-18T03:05:21.254Z,0.30
2019-03-18T03:07:48.124Z,0.30
2019-03-18T03:10:14.914Z,0.30
2019-03-18T03:12:41.475Z,0.40
2019-03-18T03:15:08.142Z,0.40
2019-03-18T03:17:34.685Z,0.60
2019-03-18T03:20:01.562Z,0.40
2019-03-18T03:22:28.077Z,0.33
2019-03-18T03:24:54.748Z,0.30
2019-03-18T03:27:21.434Z,0.40
2019-03-18T03:29:48.141Z,0.60
2019-03-18T03:32:14.694Z,0.33
2019-03-18T03:34:41.501Z,0.40
2019-03-18T03:37:08.120Z,0.60
2019-03-18T03:39:34.681Z,0.40
2019-03-18T03:42:01.613Z,0.50
2019-03-18T03:44:28.150Z,0.30
2019-03-18T03:46:54.885Z,0.50
2019-03-18T03:49:21.622Z,0.30
2019-03-18T03:51:48.130Z,0.30
2019-03-18T03:54:14.687Z,0.40
2019-03-18T03:56:41.366Z,0.47
2019-03-18T03:59:08.060Z,0.30
2019-03-18T04:01:34.647Z,0.87
2019-03-18T04:04:01.238Z,0.40
2019-03-18T04:06:27.942Z,0.73
2019-03-18T04:08:54.585Z,0.43
2019-03-18T04:11:21.241Z,0.30
2019-03-18T04:13:47.976Z,0.30
2019-03-18T04:16:14.635Z,0.50
2019-03-18T04:18:41.165Z,0.40
2019-03-18T04:21:07.814Z,0.43
2019-03-18T04:23:34.582Z,0.30
2019-03-18T04:26:01.231Z,0.30
2019-03-18T04:28:27.889Z,0.30
2019-03-18T04:33:24.269Z,0.57
2019-03-18T04:35:50.929Z,0.47
2019-03-18T04:38:17.724Z,0.40
2019-03-18T04:40:44.517Z,0.30
2019-03-18T04:43:11.218Z,0.37
2019-03-18T04:45:37.970Z,0.50
2019-03-18T04:48:04.753Z,1.03
2019-03-18T04:50:31.435Z,0.40
2019-03-18T04:52:58.073Z,0.50
2019-03-18T04:55:24.733Z,0.50
2019-03-18T04:57:51.433Z,0.30
2019-03-18T05:00:18.064Z,1.13
2019-03-18T05:02:44.792Z,0.50
2019-03-18T05:05:11.481Z,0.60
2019-03-18T05:07:38.267Z,0.40
2019-03-18T05:10:05.266Z,0.30
2019-03-18T05:12:31.809Z,0.30
2019-03-18T05:14:58.337Z,0.30
2019-03-18T05:17:26.977Z,0.30
2019-03-18T05:19:53.473Z,0.40
2019-03-18T05:22:20.017Z,0.50
2019-03-18T05:24:46.557Z,0.53
2019-03-18T05:27:13.200Z,0.40
2019-03-18T05:29:39.857Z,0.40
2019-03-18T05:32:06.581Z,0.60
2019-03-18T05:34:33.121Z,0.40
2019-03-18T05:36:59.892Z,0.40
2019-03-18T05:39:27.251Z,0.40
2019-03-18T05:41:53.923Z,0.70
2019-03-18T05:44:20.619Z,0.77
2019-03-18T05:46:47.417Z,0.60
2019-03-18T05:49:14.278Z,0.60
2019-03-18T05:51:40.828Z,0.43
2019-03-18T05:54:07.544Z,0.50
2019-03-18T05:56:34.247Z,0.70
2019-03-18T05:59:01.052Z,0.40
2019-03-18T06:01:27.945Z,0.47
2019-03-18T06:03:54.561Z,0.40
2019-03-18T06:06:21.659Z,0.80
2019-03-18T06:08:48.344Z,0.60
2019-03-18T06:11:14.874Z,0.60
2019-03-18T06:13:41.625Z,0.80
2019-03-18T06:16:08.336Z,0.50
2019-03-18T06:18:35.247Z,0.57
2019-03-18T06:21:01.989Z,0.60
2019-03-18T06:23:28.686Z,0.53
2019-03-18T06:25:55.374Z,0.50
2019-03-18T06:28:22.204Z,0.50
2019-03-18T06:30:49.030Z,0.60
2019-03-18T06:33:15.570Z,0.40
2019-03-18T06:35:42.426Z,0.40
2019-03-18T06:38:09.208Z,0.90
2019-03-18T06:40:35.990Z,0.60
2019-03-18T06:43:02.828Z,0.73
2019-03-18T06:45:29.528Z,0.60
2019-03-18T06:48:04.827Z,0.30
2019-03-18T06:50:24.639Z,0.77
2019-03-18T06:52:51.169Z,0.53
2019-03-18T06:55:17.709Z,0.50
2019-03-18T06:57:44.423Z,0.40
2019-03-18T07:00:11.054Z,0.40
2019-03-18T07:02:37.602Z,0.50
2019-03-18T07:05:05.973Z,0.80
2019-03-18T07:07:32.497Z,0.20
2019-03-18T07:09:59.149Z,0.40
2019-03-18T07:12:25.731Z,0.40
2019-03-18T07:14:52.288Z,0.60
2019-03-18T07:17:18.918Z,0.40
2019-03-18T07:19:45.588Z,0.33
2019-03-18T07:22:12.342Z,1.17
2019-03-18T07:24:39.040Z,0.43
2019-03-18T07:27:05.888Z,0.47
2019-03-18T07:29:32.454Z,0.20
2019-03-18T07:31:59.175Z,0.83
2019-03-18T07:34:25.971Z,0.43
2019-03-18T07:36:52.741Z,0.50
2019-03-18T07:39:19.348Z,0.60
2019-03-18T07:41:46.034Z,0.40
2019-03-18T07:44:12.679Z,0.50
2019-03-18T07:46:39.335Z,0.60
2019-03-18T07:49:05.964Z,0.43
2019-03-18T07:51:32.747Z,0.60
2019-03-18T07:53:59.399Z,0.60
2019-03-18T07:56:26.014Z,0.47
2019-03-18T07:58:52.668Z,0.50
2019-03-18T08:01:19.266Z,0.33
2019-03-18T08:03:45.842Z,0.47
2019-03-18T08:06:12.737Z,0.50
2019-03-18T08:08:39.546Z,0.63
2019-03-18T08:11:06.373Z,0.57
2019-03-18T08:13:32.956Z,0.60
2019-03-18T08:15:59.675Z,0.40
2019-03-18T08:18:26.481Z,0.50
2019-03-18T08:20:53.183Z,0.40
2019-03-18T08:23:20.057Z,0.63
2019-03-18T08:25:46.671Z,0.47
2019-03-18T08:28:13.218Z,0.30
2019-03-18T08:30:39.883Z,0.60
2019-03-18T08:33:06.546Z,0.60
2019-03-18T08:35:33.317Z,0.50
2019-03-18T08:38:00.069Z,0.40
2019-03-18T08:40:26.788Z,0.33
2019-03-18T08:42:53.493Z,0.53
2019-03-18T08:45:20.042Z,0.30
2019-03-18T08:47:46.708Z,0.50
2019-03-18T08:50:13.478Z,0.43
2019-03-18T08:52:40.379Z,0.40
2019-03-18T08:55:07.109Z,0.40
2019-03-18T08:57:33.769Z,0.80
2019-03-18T09:00:00.438Z,0.50
2019-03-18T09:02:26.978Z,0.47
2019-03-18T09:04:53.710Z,0.60
2019-03-18T09:07:20.354Z,0.43
2019-03-18T09:09:46.979Z,0.70
2019-03-18T09:12:13.693Z,0.43
2019-03-18T09:14:40.442Z,0.40
2019-03-18T09:17:07.109Z,0.60
2019-03-18T09:19:33.770Z,0.70
2019-03-18T09:22:00.486Z,0.50
2019-03-18T09:24:27.230Z,0.60
2019-03-18T09:27:02.227Z,0.90
2019-03-18T09:29:22.368Z,0.60
2019-03-18T09:31:49.053Z,0.57
2019-03-18T09:34:15.890Z,0.67
2019-03-18T09:36:42.615Z,0.40
2019-03-18T09:39:09.396Z,1.00
2019-03-18T09:41:36.041Z,0.80
2019-03-18T09:44:02.800Z,0.70
2019-03-18T09:46:29.471Z,0.70
2019-03-18T09:48:56.029Z,0.50
2019-03-18T09:51:22.817Z,0.90
2019-03-18T09:53:49.362Z,0.70
2019-03-18T09:56:16.214Z,0.70
2019-03-18T09:58:42.867Z,0.73
2019-03-18T10:01:09.580Z,0.63
2019-03-18T10:03:36.303Z,0.80
2019-03-18T10:06:03.052Z,0.63
2019-03-18T10:08:29.712Z,0.40
2019-03-18T10:10:56.548Z,0.30
2019-03-18T10:13:23.212Z,0.10
2019-03-18T10:15:49.876Z,0.20
2019-03-18T10:18:16.686Z,0.30
2019-03-18T10:20:43.220Z,0.40
2019-03-18T10:23:09.758Z,0.37
2019-03-18T10:25:36.426Z,0.40
2019-03-18T10:28:03.177Z,0.30
2019-03-18T10:30:29.900Z,0.20
2019-03-18T10:32:56.656Z,0.20
2019-03-18T10:35:23.363Z,0.30
2019-03-18T10:37:50.044Z,0.30
2019-03-18T10:40:16.721Z,0.40
2019-03-18T10:42:43.363Z,0.30
2019-03-18T10:45:10.109Z,0.57
2019-03-18T10:47:36.952Z,0.30
2019-03-18T10:50:04.275Z,0.30
2019-03-18T10:52:30.891Z,0.30
2019-03-18T10:54:57.570Z,0.40
2019-03-18T10:57:24.187Z,0.30
2019-03-18T10:59:50.893Z,0.27
2019-03-18T11:02:17.539Z,0.43
2019-03-18T11:04:44.332Z,0.67
2019-03-18T11:07:11.070Z,0.37
2019-03-18T11:09:37.732Z,0.40
2019-03-18T11:12:04.428Z,0.50
2019-03-18T11:14:31.273Z,0.50
2019-03-18T11:16:57.835Z,0.40
2019-03-18T11:19:24.440Z,0.50
2019-03-18T11:21:51.318Z,0.53
2019-03-18T11:24:18.058Z,0.60
2019-03-18T11:26:44.975Z,0.40
2019-03-18T11:29:11.942Z,0.50
2019-03-18T11:31:38.622Z,0.67
2019-03-18T11:34:05.304Z,0.60
2019-03-18T11:36:32.105Z,0.30
2019-03-18T11:38:58.823Z,0.40
2019-03-18T11:41:25.610Z,0.60
2019-03-18T11:43:55.879Z,0.40
2019-03-18T11:46:22.737Z,0.40
2019-03-18T11:48:49.549Z,0.50
2019-03-18T11:51:24.541Z,0.30
2019-03-18T11:53:51.616Z,0.50
2019-03-18T11:56:24.719Z,0.60
2019-03-18T11:58:51.802Z,0.50
2019-03-18T12:01:25.422Z,0.70
2019-03-18T12:03:52.472Z,0.40
2019-03-18T12:06:19.293Z,0.50
2019-03-18T12:08:45.988Z,0.40
2019-03-18T12:11:13.806Z,0.30
2019-03-18T12:13:43.544Z,0.40
2019-03-18T12:16:10.377Z,0.20
2019-03-18T12:18:37.210Z,0.40
2019-03-18T12:21:04.375Z,0.30
2019-03-18T12:23:30.980Z,0.20
2019-03-18T12:26:04.829Z,0.40
2019-03-18T12:28:31.616Z,0.30
2019-03-18T12:30:58.232Z,0.30
2019-03-18T12:33:32.899Z,0.40
2019-03-18T12:35:59.776Z,0.40
2019-03-18T12:38:28.225Z,0.50
2019-03-18T12:40:54.870Z,0.43
2019-03-18T12:43:21.516Z,0.43
2019-03-18T12:45:48.184Z,0.43
2019-03-18T12:48:15.271Z,0.50
2019-03-18T12:50:55.151Z,0.50
2019-03-18T12:53:10.719Z,0.50
2019-03-18T12:55:37.523Z,0.60
2019-03-18T12:58:04.366Z,0.50
2019-03-18T13:00:31.175Z,0.33
2019-03-18T13:02:57.973Z,0.53
2019-03-18T13:05:26.639Z,0.60
2019-03-18T13:07:53.646Z,0.50
2019-03-18T13:10:21.853Z,0.50
2019-03-18T13:12:48.990Z,0.40
2019-03-18T13:15:15.791Z,0.90
2019-03-18T13:17:43.848Z,0.50
2019-03-18T13:20:11.759Z,0.70
2019-03-18T13:22:39.186Z,0.50
2019-03-18T13:25:06.409Z,0.53
2019-03-18T13:27:33.214Z,0.40
2019-03-18T13:30:00.050Z,0.50
2019-03-18T13:32:26.864Z,0.53
2019-03-18T13:34:53.615Z,0.60
2019-03-18T13:37:21.589Z,0.50
2019-03-18T13:39:49.368Z,0.40
2019-03-18T13:42:16.282Z,0.60
2019-03-18T13:44:43.681Z,0.40
2019-03-18T13:47:10.288Z,0.43
2019-03-18T13:49:38.464Z,0.60
2019-03-18T13:52:05.380Z,0.73
2019-03-18T13:54:32.582Z,0.43
2019-03-18T13:57:00.274Z,0.70
2019-03-18T13:59:28.248Z,0.57
2019-03-18T14:01:55.235Z,0.50
2019-03-18T14:04:22.108Z,0.60
2019-03-18T14:06:49.425Z,0.70
2019-03-18T14:09:16.283Z,0.67
2019-03-18T14:11:44.005Z,0.70
2019-03-18T14:14:10.724Z,0.60
2019-03-18T14:16:37.423Z,0.80
2019-03-18T14:19:04.134Z,0.60
2019-03-18T14:21:33.595Z,0.40
2019-03-18T14:23:59.388Z,0.50
2019-03-18T14:26:26.092Z,0.70
2019-03-18T14:28:52.871Z,0.50
2019-03-18T14:31:20.289Z,0.50
2019-03-18T14:33:48.947Z,0.70
2019-03-18T14:36:15.777Z,0.47
2019-03-18T14:38:43.032Z,0.47
2019-03-18T14:41:09.849Z,0.47
2019-03-18T14:43:37.414Z,0.57
2019-03-18T14:46:04.371Z,0.50
2019-03-18T14:48:31.213Z,0.40
2019-03-18T14:50:58.684Z,0.60
2019-03-18T14:53:25.497Z,0.77
2019-03-18T14:55:53.079Z,0.30
2019-03-18T14:58:19.944Z,0.43
2019-03-18T15:00:47.201Z,0.70
2019-03-18T15:03:14.061Z,0.60
2019-03-18T15:05:40.988Z,0.50
2019-03-18T15:08:07.857Z,0.50
2019-03-18T15:10:34.448Z,0.47
2019-03-18T15:13:01.321Z,0.90
2019-03-18T15:15:28.378Z,0.70
2019-03-18T15:17:54.922Z,0.57
2019-03-18T15:20:24.110Z,0.60
2019-03-18T15:22:50.911Z,0.70
2019-03-18T15:25:18.882Z,0.70
2019-03-18T15:27:45.647Z,0.60
2019-03-18T15:30:14.208Z,0.67
2019-03-18T15:32:42.123Z,0.40
2019-03-18T15:35:09.122Z,0.67
2019-03-18T15:37:35.951Z,0.43
2019-03-18T15:40:05.357Z,0.37
2019-03-18T15:42:32.773Z,0.67
2019-03-18T15:45:02.704Z,0.60
2019-03-18T15:47:28.680Z,0.43
2019-03-18T15:49:55.523Z,0.60
2019-03-18T15:52:22.183Z,0.60
2019-03-18T15:54:54.020Z,0.60
2019-03-18T15:57:29.638Z,0.80
2019-03-18T15:59:52.236Z,0.83
2019-03-18T16:02:22.221Z,0.77
2019-03-18T16:04:49.180Z,0.70
2019-03-18T16:07:16.827Z,0.50
2019-03-18T16:09:44.198Z,0.80
2019-03-18T16:12:14.300Z,0.60
2019-03-18T16:14:45.687Z,0.90
2019-03-18T16:17:19.065Z,0.60
2019-03-18T16:19:48.831Z,1.10
2019-03-18T16:22:23.516Z,0.50
2019-03-18T16:24:47.161Z,0.60
2019-03-18T16:27:13.962Z,0.70
2019-03-18T16:29:40.795Z,0.43
2019-03-18T16:32:11.679Z,0.70
2019-03-18T16:34:37.699Z,0.50
2019-03-18T16:37:04.637Z,0.40
2019-03-18T16:39:31.536Z,0.53
2019-03-18T16:41:58.393Z,0.50
2019-03-18T16:44:25.148Z,0.50
2019-03-18T16:46:52.333Z,0.80
2019-03-18T16:49:19.012Z,0.77
2019-03-18T16:51:45.923Z,0.60
2019-03-18T16:54:12.776Z,0.80
2019-03-18T16:56:39.473Z,0.57
2019-03-18T16:59:06.355Z,0.60
2019-03-18T17:01:33.234Z,0.80
2019-03-18T17:04:00.050Z,0.60
2019-03-18T17:06:26.721Z,0.50
2019-03-18T17:08:53.772Z,0.60
2019-03-18T17:11:22.217Z,0.60
2019-03-18T17:13:49.021Z,0.90
2019-03-18T17:16:15.809Z,0.67
2019-03-18T17:18:42.688Z,0.73
2019-03-18T17:21:10.341Z,0.50
2019-03-18T17:23:37.178Z,0.80
2019-03-18T17:26:04.069Z,0.68
2019-03-18T17:28:30.835Z,0.77
2019-03-18T17:30:57.699Z,0.90
2019-03-18T17:33:24.259Z,1.10
2019-03-18T17:35:50.955Z,1.00
2019-03-18T17:38:17.704Z,1.00
2019-03-18T17:40:44.485Z,0.97
2019-03-18T17:43:11.154Z,0.80
2019-03-18T17:45:38.089Z,0.80
2019-03-18T17:48:04.831Z,1.03
2019-03-18T17:50:31.507Z,0.83
2019-03-18T17:53:03.179Z,0.93
2019-03-18T17:55:27.043Z,0.80
2019-03-18T17:57:53.747Z,1.17
2019-03-18T18:00:22.638Z,1.23
2019-03-18T18:02:52.490Z,1.20
2019-03-18T18:05:18.342Z,1.10
2019-03-18T18:07:45.138Z,1.00
2019-03-18T18:10:12.020Z,1.20
2019-03-18T18:12:38.892Z,1.10
2019-03-18T18:15:05.796Z,1.47
2019-03-18T18:17:32.787Z,1.30
2019-03-18T18:19:59.698Z,1.20
2019-03-18T18:22:26.564Z,1.00
2019-03-18T18:24:53.329Z,1.13
2019-03-18T18:27:20.174Z,0.80
2019-03-18T18:29:46.931Z,1.00
2019-03-18T18:32:13.596Z,1.10
2019-03-18T18:34:40.556Z,1.00
2019-03-18T18:37:07.225Z,1.30
2019-03-18T18:39:33.955Z,1.30
2019-03-18T18:42:00.805Z,1.13
2019-03-18T18:44:27.486Z,1.20
2019-03-18T18:46:54.300Z,1.27
2019-03-18T18:49:21.169Z,1.40
2019-03-18T18:51:47.979Z,1.20
2019-03-18T18:54:14.733Z,1.33
2019-03-18T18:56:41.518Z,1.40
2019-03-18T18:59:08.246Z,1.30
2019-03-18T19:01:34.824Z,1.10
2019-03-18T19:04:01.658Z,1.40
2019-03-18T19:06:28.568Z,1.37
2019-03-18T19:08:55.491Z,0.90
2019-03-18T19:11:22.311Z,1.43
2019-03-18T19:13:48.891Z,1.30
2019-03-18T19:16:15.642Z,1.50
2019-03-18T19:18:42.432Z,1.50
2019-03-18T19:21:10.313Z,1.20
2019-03-18T19:23:38.137Z,1.40
2019-03-18T19:26:05.088Z,1.77
2019-03-18T19:28:31.953Z,1.20
2019-03-18T19:30:58.801Z,1.23
2019-03-18T19:33:25.602Z,1.43
2019-03-18T19:35:53.179Z,1.57
2019-03-18T19:38:19.974Z,1.40
2019-03-18T19:40:46.651Z,1.57
2019-03-18T19:43:14.351Z,1.40
2019-03-18T19:45:41.070Z,1.60
2019-03-18T19:48:08.277Z,1.27
2019-03-18T19:50:35.165Z,1.00
2019-03-18T19:53:02.533Z,1.10
2019-03-18T19:55:29.317Z,0.77
2019-03-18T19:57:56.326Z,1.10
2019-03-18T20:00:23.590Z,0.87
2019-03-18T20:02:50.874Z,1.07
2019-03-18T20:05:20.492Z,0.80
2019-03-18T20:07:47.330Z,1.00
2019-03-18T20:10:14.104Z,1.00
2019-03-18T20:12:41.067Z,1.33
2019-03-18T20:15:09.199Z,1.10
2019-03-18T20:17:36.237Z,1.13
2019-03-18T20:20:03.856Z,1.23
2019-03-18T20:22:30.493Z,0.90
2019-03-18T20:24:57.333Z,1.00
2019-03-18T20:27:24.133Z,0.90
2019-03-18T20:29:50.886Z,1.47
2019-03-18T20:32:19.621Z,1.57
2019-03-18T20:34:46.690Z,1.00
2019-03-18T20:37:13.660Z,1.40
2019-03-18T20:39:40.534Z,1.37
2019-03-18T20:42:07.554Z,1.10
2019-03-18T20:44:34.336Z,1.30
2019-03-18T20:47:01.227Z,0.80
2019-03-18T20:49:28.134Z,1.00
2019-03-18T20:51:55.028Z,1.10
2019-03-18T20:54:22.061Z,0.90
2019-03-18T20:56:48.977Z,0.80
2019-03-18T20:59:15.823Z,1.00
2019-03-18T21:01:42.504Z,1.23
2019-03-18T21:04:10.307Z,1.03
2019-03-18T21:06:37.306Z,1.30
2019-03-18T21:09:06.007Z,1.07
2019-03-18T21:11:32.914Z,1.30
2019-03-18T21:13:59.930Z,1.27
2019-03-18T21:16:28.839Z,1.27
2019-03-18T21:18:55.945Z,1.30
2019-03-18T21:21:22.657Z,1.30
2019-03-18T21:23:49.396Z,1.30
2019-03-18T21:26:16.335Z,1.07
2019-03-18T21:28:43.198Z,1.37
2019-03-18T21:31:09.944Z,1.00
2019-03-18T21:33:36.771Z,1.17
2019-03-18T21:36:03.503Z,1.07
2019-03-18T21:38:30.041Z,1.27
2019-03-18T21:40:57.030Z,1.03
2019-03-18T21:43:25.800Z,0.80
2019-03-18T21:45:52.579Z,1.20
2019-03-18T21:48:19.407Z,1.13
2019-03-18T21:50:46.500Z,1.10
2019-03-18T21:53:13.181Z,0.90
2019-03-18T21:55:40.227Z,1.00
2019-03-18T21:58:07.072Z,0.90
2019-03-18T22:00:34.983Z,1.17
2019-03-18T22:03:02.998Z,1.30
2019-03-18T22:05:30.778Z,0.87
2019-03-18T22:07:57.603Z,0.73
2019-03-18T22:10:24.440Z,0.90
2019-03-18T22:12:51.464Z,1.20
2019-03-18T22:15:18.490Z,0.83
2019-03-18T22:17:45.356Z,1.10
2019-03-18T22:20:13.166Z,0.80
2019-03-18T22:22:39.974Z,1.10
2019-03-18T22:25:07.425Z,0.77
2019-03-18T22:27:34.501Z,0.90
2019-03-18T22:30:01.354Z,1.10
2019-03-18T22:32:30.145Z,0.80
2019-03-18T22:34:57.968Z,0.90
2019-03-18T22:37:24.735Z,0.93
2019-03-18T22:39:51.653Z,1.20
2019-03-18T22:42:18.213Z,1.33
2019-03-18T22:44:45.056Z,1.00
2019-03-18T22:47:11.839Z,0.90
2019-03-18T22:49:38.734Z,1.17
2019-03-18T22:52:05.858Z,1.10
2019-03-18T22:54:32.768Z,1.30
2019-03-18T22:56:59.565Z,0.80
2019-03-18T22:59:26.205Z,1.30
2019-03-18T23:01:52.990Z,0.80
2019-03-18T23:04:19.930Z,1.10
2019-03-18T23:06:46.586Z,0.70
2019-03-18T23:09:13.256Z,0.87
2019-03-18T23:11:39.817Z,1.17
2019-03-18T23:14:06.349Z,0.90
2019-03-18T23:16:33.001Z,1.40
2019-03-18T23:18:59.660Z,1.20
2019-03-18T23:21:26.635Z,1.30
2019-03-18T23:23:53.168Z,1.20
2019-03-18T23:26:20.082Z,1.10
2019-03-18T23:28:46.719Z,0.90
2019-03-18T23:31:13.249Z,1.30
2019-03-18T23:33:40.026Z,1.40
2019-03-18T23:36:06.720Z,1.27
2019-03-18T23:38:33.321Z,1.33
2019-03-18T23:40:59.996Z,1.10
2019-03-18T23:43:26.714Z,0.77
2019-03-18T23:45:53.252Z,1.03
2019-03-18T23:48:20.142Z,1.00
2019-03-18T23:50:46.916Z,1.40
2019-03-18T23:53:13.483Z,1.30
2019-03-18T23:55:40.463Z,1.40
2019-03-18T23:58:07.066Z,0.93
